Time;durP1;ratioP1;P1;durP2;ratioP2;P2;SDS_P1;SDS_P2;PMS_P1;PMS_P2;Temp;Humidity;BMP_temperature;BMP_pressure;BME280_temperature;BME280_humidity;BME280_pressure;Samples;Min_cycle;Max_cycle;Signal;HPM_P1;HPM_P2
2024/01/30 00:01:53;;;;;;;0.80;0.50;;;;;;;;;;5054068;28;21005;-84
2024/01/30 00:04:19;;;;;;;1.10;0.40;;;10.50;99.90;;;;;;5053671;28;20165;-83
2024/01/30 00:06:45;;;;;;;0.90;0.60;;;10.70;99.90;;;;;;5053557;28;20231;-85
2024/01/30 00:09:11;;;;;;;2.47;0.90;;;10.70;99.90;;;;;;5054733;28;20180;-86
2024/01/30 00:11:37;;;;;;;1.40;0.67;;;10.80;99.90;;;;;;5053691;28;20644;-85
2024/01/30 00:14:03;;;;;;;1.30;0.53;;;10.60;99.90;;;;;;5053325;28;20177;-85
2024/01/30 00:16:29;;;;;;;1.60;0.60;;;10.70;99.90;;;;;;5053587;28;20295;-85
2024/01/30 00:18:55;;;;;;;1.43;0.80;;;10.60;99.90;;;;;;5053300;28;20711;-86
2024/01/30 00:21:21;;;;;;;1.60;0.70;;;10.70;99.90;;;;;;5053372;28;20225;-86
2024/01/30 00:23:47;;;;;;;2.37;0.83;;;10.80;99.90;;;;;;5053606;28;20173;-87
2024/01/30 00:26:14;;;;;;;3.10;0.83;;;10.70;99.90;;;;;;5054254;28;20715;-83
2024/01/30 00:28:43;;;;;;;1.20;0.80;;;10.90;99.90;;;;;;5054058;28;20182;-85
2024/01/30 00:31:12;;;;;;;1.67;0.90;;;10.80;99.90;;;;;;5053977;28;20263;-88
2024/01/30 00:33:39;;;;;;;1.47;0.73;;;10.70;99.90;;;;;;5054073;28;20184;-88
2024/01/30 00:36:06;;;;;;;0.80;0.80;;;10.80;99.90;;;;;;5053803;28;20209;-86
2024/01/30 00:38:32;;;;;;;1.50;0.83;;;10.80;99.90;;;;;;5053622;28;20185;-86
2024/01/30 00:40:58;;;;;;;1.67;0.90;;;10.80;99.90;;;;;;5053031;28;20170;-86
2024/01/30 00:43:25;;;;;;;2.30;1.00;;;11.10;99.90;;;;;;5053579;28;20189;-88
2024/01/30 00:45:52;;;;;;;1.03;0.93;;;;;;;;;;5052196;28;20211;-85
2024/01/30 00:48:18;;;;;;;0.83;0.80;;;;;;;;;;5052348;28;20582;-85
2024/01/30 00:50:44;;;;;;;0.90;0.90;;;11.10;99.90;;;;;;5051688;28;20655;-86
2024/01/30 00:53:10;;;;;;;0.80;0.80;;;;;;;;;;5052394;28;20215;-87
2024/01/30 00:55:36;;;;;;;1.73;1.00;;;10.40;99.90;;;;;;5052642;28;21045;-84
2024/01/30 00:58:02;;;;;;;1.27;1.00;;;10.40;99.90;;;;;;5052469;28;20508;-87
2024/01/30 01:00:28;;;;;;;1.20;1.10;;;10.10;99.90;;;;;;5051967;28;20173;-86
2024/01/30 01:02:55;;;;;;;1.40;1.20;;;9.80;99.90;;;;;;5034875;28;20181;-86
2024/01/30 01:05:21;;;;;;;1.47;1.30;;;;;;;;;;5052581;28;20181;-82
2024/01/30 01:07:48;;;;;;;2.40;1.40;;;9.50;99.90;;;;;;5051593;28;20197;-88
2024/01/30 01:10:14;;;;;;;3.67;1.23;;;9.00;99.90;;;;;;5051360;28;20189;-88
2024/01/30 01:12:40;;;;;;;1.77;0.90;;;8.90;99.90;;;;;;5051640;28;20161;-86
2024/01/30 01:15:09;;;;;;;1.70;1.27;;;8.90;99.90;;;;;;5051545;28;20569;-88
2024/01/30 01:17:35;;;;;;;3.70;1.83;;;8.80;99.90;;;;;;5051734;28;20165;-84
2024/01/30 01:20:01;;;;;;;1.63;1.27;;;;;;;;;;5051343;28;20181;-84
2024/01/30 01:22:27;;;;;;;3.37;1.67;;;;;;;;;;5051191;28;20232;-83
2024/01/30 01:24:53;;;;;;;2.40;1.47;;;;;;;;;;5051259;28;20185;-83
2024/01/30 01:27:18;;;;;;;4.57;1.80;;;8.70;99.90;;;;;;5051226;28;20260;-82
2024/01/30 01:29:45;;;;;;;4.07;1.70;;;8.60;99.90;;;;;;5051259;28;20574;-82
2024/01/30 01:32:11;;;;;;;2.00;1.27;;;;;;;;;;5051231;28;20701;-84
2024/01/30 01:34:37;;;;;;;3.77;1.60;;;8.50;99.90;;;;;;5051309;28;20162;-82
2024/01/30 01:37:03;;;;;;;2.40;1.40;;;;;;;;;;5051094;28;20697;-80
2024/01/30 01:39:28;;;;;;;1.70;1.30;;;8.50;99.90;;;;;;5051037;28;20651;-81
2024/01/30 01:41:54;;;;;;;2.43;1.30;;;8.40;99.90;;;;;;5051051;28;20212;-81
2024/01/30 01:44:20;;;;;;;2.23;1.20;;;8.60;99.90;;;;;;5051145;28;20181;-81
2024/01/30 01:46:46;;;;;;;2.93;1.70;;;;;;;;;;5051224;28;20177;-85
2024/01/30 01:49:12;;;;;;;3.70;1.83;;;8.40;99.90;;;;;;5051319;28;20173;-82
2024/01/30 01:51:40;;;;;;;2.33;1.70;;;8.40;99.90;;;;;;5051242;28;20172;-84
2024/01/30 01:54:08;;;;;;;2.20;1.73;;;8.30;99.90;;;;;;5051427;28;20212;-85
2024/01/30 01:56:34;;;;;;;4.03;1.90;;;8.50;99.90;;;;;;5052465;28;20343;-83
2024/01/30 01:59:04;;;;;;;2.53;1.53;;;8.10;99.90;;;;;;5055344;28;20643;-83
2024/01/30 02:01:32;;;;;;;1.20;1.13;;;9.00;99.90;;;;;;5055775;28;20177;-83
2024/01/30 02:03:59;;;;;;;2.20;1.50;;;8.40;99.90;;;;;;5051879;28;20741;-84
2024/01/30 02:06:25;;;;;;;1.87;1.40;;;8.40;99.90;;;;;;5055293;28;20169;-83
2024/01/30 02:08:51;;;;;;;1.70;1.40;;;8.20;99.90;;;;;;5052284;28;20302;-84
2024/01/30 02:11:17;;;;;;;3.57;1.67;;;8.60;99.90;;;;;;5057741;28;20212;-83
2024/01/30 02:13:43;;;;;;;3.67;1.50;;;8.30;99.90;;;;;;5058772;28;20177;-80
2024/01/30 02:16:10;;;;;;;2.90;1.60;;;;;;;;;;5055753;28;20278;-84
2024/01/30 02:18:41;;;;;;;2.73;1.33;;;;;;;;;;5061469;28;20193;-85
2024/01/30 02:21:07;;;;;;;2.20;1.37;;;8.20;99.90;;;;;;5044296;28;20217;-84
2024/01/30 02:23:34;;;;;;;2.67;1.43;;;8.20;99.90;;;;;;5057243;28;20173;-83
2024/01/30 02:26:00;;;;;;;2.50;1.40;;;8.40;99.90;;;;;;5054846;28;20185;-84
2024/01/30 02:28:27;;;;;;;2.43;1.47;;;7.90;99.90;;;;;;5054616;28;20216;-85
2024/01/30 02:30:53;;;;;;;4.50;1.70;;;;;;;;;;5054579;28;20188;-85
2024/01/30 02:33:18;;;;;;;1.70;1.33;;;8.20;99.90;;;;;;5054437;28;20533;-84
2024/01/30 02:35:44;;;;;;;1.20;1.10;;;;;;;;;;5054262;28;20209;-84
2024/01/30 02:38:11;;;;;;;1.30;1.20;;;;;;;;;;5054009;28;20221;-83
2024/01/30 02:40:37;;;;;;;1.33;1.03;;;;;;;;;;5054436;28;20181;-88
2024/01/30 02:43:03;;;;;;;1.20;1.10;;;8.10;99.90;;;;;;5054416;28;20280;-85
2024/01/30 02:45:29;;;;;;;1.67;1.10;;;8.10;99.90;;;;;;5054244;28;20169;-85
2024/01/30 02:47:54;;;;;;;1.87;1.10;;;8.00;99.90;;;;;;5054092;28;20587;-83
2024/01/30 02:50:20;;;;;;;1.17;1.07;;;8.00;99.90;;;;;;5054050;28;20173;-84
2024/01/30 02:52:46;;;;;;;2.33;1.10;;;8.00;99.90;;;;;;5054284;28;20237;-85
2024/01/30 02:55:12;;;;;;;1.03;0.97;;;8.20;99.90;;;;;;5054031;28;20197;-86
2024/01/30 02:57:38;;;;;;;1.27;1.10;;;7.80;99.90;;;;;;5054099;28;20181;-85
2024/01/30 03:00:06;;;;;;;1.00;0.90;;;7.80;99.90;;;;;;5036395;28;20181;-85
2024/01/30 03:02:32;;;;;;;0.97;0.90;;;7.90;99.90;;;;;;5054122;28;20196;-85
2024/01/30 03:04:58;;;;;;;1.80;1.00;;;;;;;;;;5054160;28;20599;-86
2024/01/30 03:07:24;;;;;;;1.10;1.00;;;7.90;99.90;;;;;;5053552;28;20169;-85
2024/01/30 03:09:50;;;;;;;1.13;1.03;;;7.90;99.90;;;;;;5053848;28;20244;-86
2024/01/30 03:12:15;;;;;;;1.90;1.20;;;7.90;99.90;;;;;;5054014;28;20224;-87
2024/01/30 03:14:41;;;;;;;1.27;1.10;;;7.90;99.90;;;;;;5053906;28;20635;-85
2024/01/30 03:17:07;;;;;;;1.17;1.00;;;9.20;99.90;;;;;;5054485;28;20220;-85
2024/01/30 03:19:32;;;;;;;1.30;1.00;;;7.90;99.90;;;;;;5053690;28;20702;-86
2024/01/30 03:21:58;;;;;;;2.40;1.27;;;8.00;99.90;;;;;;5035724;28;20226;-86
2024/01/30 03:24:24;;;;;;;1.10;1.10;;;7.70;99.90;;;;;;5053134;28;20177;-90
2024/01/30 03:26:50;;;;;;;2.30;1.20;;;;;;;;;;5053883;28;20686;-87
2024/01/30 03:29:16;;;;;;;2.97;1.37;;;;;;;;;;5053743;28;20173;-81
2024/01/30 03:31:42;;;;;;;2.53;1.27;;;8.30;99.90;;;;;;5053242;28;20208;-84
2024/01/30 03:34:08;;;;;;;1.13;1.10;;;8.10;99.90;;;;;;5053204;28;20204;-83
2024/01/30 03:36:34;;;;;;;1.50;1.10;;;;;;;;;;5053083;28;20263;-82
2024/01/30 03:39:00;;;;;;;2.00;1.20;;;8.20;99.90;;;;;;5053188;28;20169;-82
2024/01/30 03:41:26;;;;;;;1.67;1.10;;;7.80;99.90;;;;;;5052857;28;20185;-82
2024/01/30 03:43:51;;;;;;;1.63;1.20;;;8.10;99.90;;;;;;5052151;28;20184;-82
2024/01/30 03:46:18;;;;;;;1.43;1.10;;;;;;;;;;5052772;28;20192;-82
2024/01/30 03:48:44;;;;;;;1.30;1.20;;;;;;;;;;5052745;28;20188;-82
2024/01/30 03:51:14;;;;;;;1.20;1.10;;;8.30;99.90;;;;;;5052763;28;20230;-82
2024/01/30 03:53:41;;;;;;;3.53;1.33;;;8.00;99.90;;;;;;5052353;28;20177;-82
2024/01/30 03:56:07;;;;;;;3.70;1.50;;;;;;;;;;5052262;28;20212;-82
2024/01/30 03:58:33;;;;;;;2.17;1.13;;;;;;;;;;5052226;28;20173;-82
2024/01/30 04:00:58;;;;;;;1.63;1.03;;;8.30;99.90;;;;;;5051709;28;20659;-82
2024/01/30 04:03:25;;;;;;;1.83;1.10;;;;;;;;;;5051942;28;20186;-81
2024/01/30 04:05:52;;;;;;;1.10;1.10;;;8.60;99.90;;;;;;5052860;28;20189;-82
2024/01/30 04:08:18;;;;;;;5.67;1.50;;;8.10;99.90;;;;;;5052436;28;20177;-81
2024/01/30 04:10:44;;;;;;;1.87;1.30;;;;;;;;;;5052514;28;20179;-81
2024/01/30 04:13:10;;;;;;;1.83;1.23;;;8.20;99.90;;;;;;5052245;28;20176;-81
2024/01/30 04:15:36;;;;;;;3.90;1.30;;;8.00;99.90;;;;;;5052435;28;20551;-81
2024/01/30 04:18:01;;;;;;;1.30;1.20;;;8.10;99.90;;;;;;5052019;28;20181;-82
2024/01/30 04:20:27;;;;;;;1.23;1.10;;;7.90;99.90;;;;;;5051437;28;20184;-82
2024/01/30 04:22:53;;;;;;;1.60;1.10;;;;;;;;;;5052231;28;20607;-82
2024/01/30 04:25:19;;;;;;;1.10;1.10;;;8.20;99.90;;;;;;5051807;28;20725;-82
2024/01/30 04:27:45;;;;;;;2.07;0.93;;;;;;;;;;5052121;28;20178;-83
2024/01/30 04:30:11;;;;;;;1.80;1.10;;;8.20;99.90;;;;;;5052056;28;20200;-82
2024/01/30 04:32:37;;;;;;;1.13;0.90;;;7.80;99.90;;;;;;5052315;28;20640;-82
2024/01/30 04:35:03;;;;;;;2.97;1.10;;;8.40;99.90;;;;;;5051909;28;20581;-85
2024/01/30 04:37:29;;;;;;;1.93;1.10;;;8.00;99.90;;;;;;5052075;28;20219;-86
2024/01/30 04:39:54;;;;;;;1.37;1.07;;;8.30;99.90;;;;;;5052102;28;20636;-85
2024/01/30 04:42:20;;;;;;;1.93;1.10;;;8.30;99.90;;;;;;5051824;28;20627;-85
2024/01/30 04:44:46;;;;;;;2.07;1.23;;;8.20;99.90;;;;;;5051797;28;20647;-85
2024/01/30 04:47:12;;;;;;;1.67;1.10;;;;;;;;;;5051846;28;20184;-85
2024/01/30 04:49:41;;;;;;;2.40;1.33;;;8.30;99.90;;;;;;5052086;28;20242;-87
2024/01/30 04:52:07;;;;;;;4.70;1.50;;;8.40;99.90;;;;;;5051587;28;20174;-89
2024/01/30 04:54:34;;;;;;;2.10;1.20;;;8.20;99.90;;;;;;5052077;28;20214;-86
2024/01/30 04:57:00;;;;;;;3.37;1.33;;;8.00;99.90;;;;;;5052247;28;20701;-87
2024/01/30 04:59:26;;;;;;;2.60;1.50;;;;;;;;;;5051988;28;20252;-85
2024/01/30 05:01:52;;;;;;;2.13;1.27;;;;;;;;;;5052092;28;20177;-87
2024/01/30 05:04:18;;;;;;;3.70;1.80;;;7.70;99.90;;;;;;5051847;28;20177;-86
2024/01/30 05:06:43;;;;;;;2.97;1.40;;;8.10;99.90;;;;;;5034090;28;20183;-86
2024/01/30 05:09:09;;;;;;;5.50;1.70;;;;;;;;;;5051857;28;20191;-86
2024/01/30 05:11:41;;;;;;;3.33;1.50;;;7.90;99.90;;;;;;5051812;28;20248;-86
2024/01/30 05:14:08;;;;;;;3.10;1.53;;;7.90;99.90;;;;;;5051798;28;20196;-86
2024/01/30 05:16:34;;;;;;;5.07;1.60;;;8.10;99.90;;;;;;5051871;28;20209;-87
2024/01/30 05:19:00;;;;;;;4.03;1.60;;;;;;;;;;5051730;28;20168;-86
2024/01/30 05:21:26;;;;;;;2.80;1.50;;;8.00;99.90;;;;;;5051502;28;20266;-86
2024/01/30 05:23:51;;;;;;;4.57;1.80;;;8.40;99.90;;;;;;5051570;28;20248;-87
2024/01/30 05:26:17;;;;;;;3.53;1.70;;;7.80;99.90;;;;;;5051936;28;20207;-86
2024/01/30 05:28:44;;;;;;;4.93;1.90;;;7.90;99.90;;;;;;5059770;28;20183;-85
2024/01/30 05:31:10;;;;;;;3.77;1.90;;;7.70;99.90;;;;;;5060550;28;20173;-81
2024/01/30 05:33:36;;;;;;;4.47;1.80;;;7.70;99.90;;;;;;5051587;28;20726;-80
2024/01/30 05:36:02;;;;;;;3.07;1.80;;;8.00;99.90;;;;;;5052089;28;20292;-83
2024/01/30 05:38:28;;;;;;;3.40;1.80;;;7.90;99.90;;;;;;5034605;28;20213;-83
2024/01/30 05:40:55;;;;;;;3.43;1.80;;;8.00;99.90;;;;;;5052777;28;20216;-83
2024/01/30 05:43:20;;;;;;;3.37;1.80;;;8.20;99.90;;;;;;5051260;28;20604;-85
2024/01/30 05:45:46;;;;;;;3.70;1.90;;;7.80;99.90;;;;;;5051328;28;20201;-85
2024/01/30 05:48:11;;;;;;;4.70;2.00;;;8.00;99.90;;;;;;5051069;28;20185;-84
2024/01/30 05:50:37;;;;;;;4.90;1.73;;;8.10;99.90;;;;;;5033436;28;20184;-84
2024/01/30 05:53:03;;;;;;;3.10;1.77;;;7.90;99.90;;;;;;5051266;28;20268;-84
2024/01/30 05:55:29;;;;;;;3.70;1.93;;;;;;;;;;5051017;28;20236;-83
2024/01/30 05:57:55;;;;;;;5.10;1.80;;;8.00;99.90;;;;;;5051043;28;20215;-83
2024/01/30 06:00:21;;;;;;;4.23;1.77;;;8.10;99.90;;;;;;5050877;28;20200;-84
2024/01/30 06:02:46;;;;;;;4.03;2.10;;;8.20;99.90;;;;;;5051130;28;20708;-84
2024/01/30 06:05:12;;;;;;;3.60;2.00;;;;;;;;;;5044243;28;20181;-84
2024/01/30 06:07:38;;;;;;;6.53;2.37;;;7.80;99.90;;;;;;5050755;28;20659;-85
2024/01/30 06:10:04;;;;;;;3.13;1.90;;;8.00;99.90;;;;;;5031798;28;20227;-85
2024/01/30 06:12:30;;;;;;;4.70;2.40;;;8.00;99.90;;;;;;5030726;28;20169;-84
2024/01/30 06:14:56;;;;;;;5.57;2.70;;;;;;;;;;5039971;28;20188;-84
2024/01/30 06:17:23;;;;;;;5.60;2.60;;;7.90;99.90;;;;;;5049084;28;20698;-85
2024/01/30 06:19:49;;;;;;;8.27;2.70;;;7.50;99.90;;;;;;5030914;28;20162;-84
2024/01/30 06:22:15;;;;;;;8.23;2.93;;;7.70;99.90;;;;;;5031746;28;20550;-86
2024/01/30 06:24:41;;;;;;;6.20;2.50;;;7.40;99.90;;;;;;5050466;28;20647;-84
2024/01/30 06:27:06;;;;;;;7.90;3.07;;;7.60;99.90;;;;;;5032910;28;20223;-85
2024/01/30 06:29:32;;;;;;;7.57;2.70;;;7.90;99.90;;;;;;5050943;28;20169;-85
2024/01/30 06:31:58;;;;;;;10.07;3.33;;;7.70;99.90;;;;;;5050764;28;20616;-84
2024/01/30 06:34:26;;;;;;;10.00;3.10;;;6.90;99.90;;;;;;5050713;28;20173;-83
2024/01/30 06:36:51;;;;;;;8.13;3.10;;;7.80;99.90;;;;;;5050564;28;20209;-83
2024/01/30 06:39:17;;;;;;;7.03;3.13;;;7.60;99.90;;;;;;5050213;28;20507;-85
2024/01/30 06:41:43;;;;;;;8.97;3.63;;;;;;;;;;5050878;28;20185;-83
2024/01/30 06:44:09;;;;;;;7.13;3.03;;;7.60;99.90;;;;;;5036464;28;20177;-82
2024/01/30 06:46:35;;;;;;;9.27;3.13;;;7.40;99.90;;;;;;5054311;28;20188;-83
2024/01/30 06:49:01;;;;;;;8.20;3.00;;;;;;;;;;5054312;28;20185;-82
2024/01/30 06:51:27;;;;;;;10.03;3.43;;;7.70;99.90;;;;;;5036486;28;20173;-84
2024/01/30 06:53:52;;;;;;;8.43;3.27;;;7.60;99.90;;;;;;5054128;28;20173;-82
2024/01/30 06:56:21;;;;;;;8.40;3.20;;;7.50;99.90;;;;;;5054541;28;20708;-83
2024/01/30 06:58:50;;;;;;;8.63;3.30;;;7.70;99.90;;;;;;5054181;28;20172;-82
2024/01/30 07:01:16;;;;;;;9.23;3.10;;;7.80;99.90;;;;;;5054083;28;20177;-82
2024/01/30 07:03:42;;;;;;;11.47;3.43;;;7.40;99.90;;;;;;5053711;28;20169;-82
2024/01/30 07:06:09;;;;;;;6.50;2.90;;;7.60;99.90;;;;;;5035791;28;20180;-81
2024/01/30 07:08:35;;;;;;;9.33;3.63;;;;;;;;;;5035708;28;20181;-82
2024/01/30 07:11:01;;;;;;;12.33;3.47;;;;;;;;;;5053379;28;20675;-82
2024/01/30 07:13:28;;;;;;;9.70;3.07;;;7.60;99.90;;;;;;5046581;28;20189;-82
2024/01/30 07:15:54;;;;;;;9.13;3.40;;;7.70;99.90;;;;;;5053740;28;20223;-81
2024/01/30 07:18:20;;;;;;;9.00;3.70;;;;;;;;;;5053259;28;20257;-76
2024/01/30 07:20:47;;;;;;;10.70;3.33;;;;;;;;;;5052484;28;20212;-77
2024/01/30 07:23:15;;;;;;;10.30;3.43;;;7.60;99.90;;;;;;5052720;28;20169;-77
2024/01/30 07:25:42;;;;;;;9.47;3.17;;;7.50;99.90;;;;;;5052082;28;20180;-77
2024/01/30 07:28:12;;;;;;;6.07;2.80;;;7.60;99.90;;;;;;5053499;28;20192;-77
2024/01/30 07:30:37;;;;;;;9.23;3.20;;;7.60;99.90;;;;;;5053318;28;20170;-78
2024/01/30 07:33:03;;;;;;;12.80;3.70;;;7.60;99.90;;;;;;5052398;28;20184;-82
2024/01/30 07:35:29;;;;;;;10.80;3.60;;;;;;;;;;5035121;28;20207;-80
2024/01/30 07:37:56;;;;;;;9.47;3.23;;;;;;;;;;5053714;28;20185;-82
2024/01/30 07:40:22;;;;;;;6.43;2.77;;;7.70;99.90;;;;;;5054035;28;20173;-81
2024/01/30 07:42:51;;;;;;;9.53;3.30;;;7.70;99.90;;;;;;5054446;28;20173;-82
2024/01/30 07:45:21;;;;;;;6.63;2.93;;;;;;;;;;5054262;28;20288;-81
2024/01/30 07:47:46;;;;;;;10.27;3.60;;;8.20;99.90;;;;;;5062488;28;20149;-81
2024/01/30 07:50:12;;;;;;;8.00;2.90;;;;;;;;;;5059944;28;20173;-80
2024/01/30 07:52:39;;;;;;;9.70;3.17;;;;;;;;;;5075853;28;20176;-82
2024/01/30 07:55:07;;;;;;;7.77;2.73;;;7.60;99.90;;;;;;5075523;28;20181;-78
2024/01/30 07:57:34;;;;;;;8.00;3.10;;;7.50;99.90;;;;;;5066451;28;20260;-79
2024/01/30 08:00:00;;;;;;;10.33;3.10;;;7.60;99.90;;;;;;5078021;28;20161;-83
2024/01/30 08:02:26;;;;;;;12.43;3.27;;;7.50;99.90;;;;;;5077906;28;20161;-82
2024/01/30 08:04:51;;;;;;;11.53;3.30;;;7.40;99.90;;;;;;5060743;28;20188;-82
2024/01/30 08:07:17;;;;;;;6.27;2.80;;;;;;;;;;5077240;28;20179;-82
2024/01/30 08:09:44;;;;;;;9.93;3.10;;;7.60;99.90;;;;;;5067918;28;20174;-85
2024/01/30 08:12:09;;;;;;;12.13;3.30;;;7.80;99.90;;;;;;5055524;28;20192;-80
2024/01/30 08:14:35;;;;;;;12.60;3.20;;;7.60;99.90;;;;;;5052433;28;20181;-81
2024/01/30 08:17:01;;;;;;;8.20;2.73;;;;;;;;;;5053323;28;20221;-85
2024/01/30 08:19:27;;;;;;;8.90;2.97;;;7.50;99.90;;;;;;5053083;28;20173;-82
2024/01/30 08:21:53;;;;;;;14.60;3.37;;;;;;;;;;5052994;28;20232;-83
2024/01/30 08:24:19;;;;;;;9.37;3.20;;;;;;;;;;5052698;28;20279;-81
2024/01/30 08:26:45;;;;;;;16.77;3.73;;;;;;;;;;5052692;28;20205;-83
2024/01/30 08:29:10;;;;;;;9.50;3.10;;;7.80;99.90;;;;;;5052633;28;20250;-82
2024/01/30 08:31:36;;;;;;;12.47;3.47;;;;;;;;;;5052587;28;20177;-83
2024/01/30 08:34:02;;;;;;;10.70;3.00;;;;;;;;;;5053109;28;20166;-80
2024/01/30 08:36:28;;;;;;;12.90;4.97;;;;;;;;;;5052076;28;20280;-81
2024/01/30 08:38:54;;;;;;;11.70;3.20;;;7.80;99.90;;;;;;5052603;28;20174;-81
2024/01/30 08:41:20;;;;;;;7.87;2.70;;;;;;;;;;5034513;28;20177;-82
2024/01/30 08:43:46;;;;;;;9.23;3.27;;;7.90;99.90;;;;;;5052968;28;20177;-82
2024/01/30 08:46:12;;;;;;;8.40;2.90;;;7.30;99.90;;;;;;5053900;28;20177;-84
2024/01/30 08:48:37;;;;;;;18.67;5.67;;;8.40;99.90;;;;;;5057317;28;20696;-83
2024/01/30 08:51:03;;;;;;;19.07;7.20;;;8.50;99.90;;;;;;5058232;28;20175;-82
2024/01/30 08:53:29;;;;;;;13.50;4.10;;;8.80;99.90;;;;;;5057861;28;20158;-83
2024/01/30 08:55:55;;;;;;;12.77;3.67;;;;;;;;;;5061593;28;20217;-84
2024/01/30 08:58:21;;;;;;;17.77;4.23;;;;;;;;;;5057472;28;20204;-82
2024/01/30 09:00:47;;;;;;;14.93;4.80;;;;;;;;;;5056369;28;20177;-83
2024/01/30 09:03:12;;;;;;;12.77;3.53;;;13.00;99.90;;;;;;5054594;28;20184;-83
2024/01/30 09:05:39;;;;;;;14.17;3.60;;;;;;;;;;5052373;28;20169;-84
2024/01/30 09:08:04;;;;;;;12.80;3.23;;;13.90;99.90;;;;;;5052678;28;20181;-83
2024/01/30 09:10:30;;;;;;;15.07;4.23;;;;;;;;;;5052379;28;20264;-84
2024/01/30 09:12:56;;;;;;;14.40;3.30;;;14.30;99.90;;;;;;5051541;28;20173;-81
2024/01/30 09:15:22;;;;;;;13.13;3.07;;;;;;;;;;5051232;28;20673;-83
2024/01/30 09:17:48;;;;;;;18.53;3.03;;;15.40;99.90;;;;;;5051706;28;20182;-81
2024/01/30 09:20:14;;;;;;;10.70;2.55;;;;;;;;;;5051217;28;20189;-87
2024/01/30 09:22:40;;;;;;;13.10;3.08;;;11.50;99.90;;;;;;5051824;28;20177;-83
2024/01/30 09:25:06;;;;;;;16.27;3.03;;;;;;;;;;5034139;28;20168;-85
2024/01/30 09:27:31;;;;;;;15.23;2.93;;;9.80;99.90;;;;;;5049435;28;20174;-83
2024/01/30 09:29:57;;;;;;;7.93;2.20;;;9.50;99.90;;;;;;5039960;28;20188;-84
2024/01/30 09:32:23;;;;;;;10.07;2.80;;;9.30;99.90;;;;;;5051167;28;20184;-85
2024/01/30 09:34:49;;;;;;;12.10;2.30;;;;;;;;;;5050729;28;20173;-83
2024/01/30 09:37:16;;;;;;;15.70;2.63;;;8.90;99.90;;;;;;5033394;28;20226;-87
2024/01/30 09:39:42;;;;;;;13.10;1.97;;;8.70;99.90;;;;;;5050661;28;20177;-84
2024/01/30 09:42:17;;;;;;;13.87;2.23;;;8.50;99.90;;;;;;5050357;28;20648;-85
2024/01/30 09:44:44;;;;;;;9.30;2.07;;;8.60;99.90;;;;;;5013501;28;20227;-85
2024/01/30 09:47:10;;;;;;;12.27;1.90;;;8.60;99.90;;;;;;5048228;28;20181;-85
2024/01/30 09:49:37;;;;;;;9.87;2.43;;;8.50;99.90;;;;;;5051040;28;20169;-82
2024/01/30 09:52:05;;;;;;;13.73;2.27;;;8.60;99.90;;;;;;5050268;28;20173;-82
2024/01/30 09:54:31;;;;;;;12.13;2.10;;;;;;;;;;5049429;28;20235;-82
2024/01/30 09:56:58;;;;;;;8.60;2.10;;;8.30;99.90;;;;;;5048868;28;20205;-82
2024/01/30 09:59:24;;;;;;;13.87;2.77;;;;;;;;;;5050219;28;20230;-82
2024/01/30 10:01:51;;;;;;;11.80;2.80;;;8.70;99.90;;;;;;5051165;28;20173;-85
2024/01/30 10:04:17;;;;;;;10.00;2.50;;;8.80;99.90;;;;;;5050774;28;20173;-85
2024/01/30 10:06:43;;;;;;;9.30;2.50;;;;;;;;;;5051224;28;20544;-85
2024/01/30 10:09:09;;;;;;;12.63;2.83;;;;;;;;;;5050813;28;20180;-86
2024/01/30 10:11:36;;;;;;;11.00;2.67;;;8.70;99.90;;;;;;5051276;28;20182;-86
2024/01/30 10:14:02;;;;;;;10.87;2.93;;;;;;;;;;5050836;28;20196;-85
2024/01/30 10:16:28;;;;;;;15.93;3.20;;;;;;;;;;5050279;28;20213;-86
2024/01/30 10:18:54;;;;;;;14.37;3.33;;;7.30;99.90;;;;;;5054288;28;20901;-86
2024/01/30 10:21:19;;;;;;;18.57;2.90;;;8.60;99.90;;;;;;5054818;28;20702;-87
2024/01/30 10:23:45;;;;;;;7.20;2.63;;;;;;;;;;5054180;28;20563;-87
2024/01/30 10:26:11;;;;;;;12.63;2.93;;;8.50;99.90;;;;;;5054327;28;20189;-86
2024/01/30 10:28:37;;;;;;;10.47;2.40;;;;;;;;;;5035645;28;20572;-85
2024/01/30 10:31:03;;;;;;;7.17;2.43;;;8.70;99.90;;;;;;5046840;28;20169;-87
2024/01/30 10:33:30;;;;;;;12.07;2.50;;;8.60;99.90;;;;;;5053292;28;20222;-83
2024/01/30 10:36:02;;;;;;;7.97;2.37;;;9.30;99.90;;;;;;5053346;28;20208;-86
2024/01/30 10:38:32;;;;;;;11.97;2.40;;;8.20;99.90;;;;;;5035914;28;20173;-86
2024/01/30 10:40:59;;;;;;;8.43;2.20;;;8.60;99.90;;;;;;5053482;28;20174;-87
2024/01/30 10:43:34;;;;;;;6.67;2.20;;;8.30;99.90;;;;;;5054287;28;20177;-87
2024/01/30 10:46:19;;;;;;;5.67;2.17;;;8.40;99.90;;;;;;5054529;28;20161;-87
2024/01/30 10:48:54;;;;;;;9.93;2.40;;;8.30;99.90;;;;;;5054345;28;20176;-87
2024/01/30 10:51:22;;;;;;;8.53;2.30;;;8.50;99.90;;;;;;5053994;28;20173;-89
2024/01/30 10:53:50;;;;;;;9.70;2.40;;;8.60;99.90;;;;;;5054182;28;20177;-88
2024/01/30 10:56:16;;;;;;;5.87;1.77;;;8.60;99.90;;;;;;5055521;28;20205;-88
2024/01/30 10:58:42;;;;;;;9.73;2.10;;;8.60;99.90;;;;;;5055043;28;20170;-87
2024/01/30 11:01:09;;;;;;;6.47;2.00;;;8.70;99.90;;;;;;5054721;28;20256;-86
2024/01/30 11:03:36;;;;;;;15.00;2.10;;;8.60;99.90;;;;;;5055293;28;20182;-86
2024/01/30 11:06:02;;;;;;;6.83;1.73;;;8.60;99.90;;;;;;5054661;28;20588;-87
2024/01/30 11:08:29;;;;;;;3.73;1.30;;;;;;;;;;5054808;28;20180;-86
2024/01/30 11:10:57;;;;;;;5.63;1.60;;;8.60;99.90;;;;;;5037099;28;20260;-86
2024/01/30 11:13:27;;;;;;;13.43;2.23;;;8.70;99.90;;;;;;5054468;28;20698;-86
2024/01/30 11:15:53;;;;;;;6.63;1.90;;;8.80;99.90;;;;;;5036665;28;20216;-87
2024/01/30 11:18:49;;;;;;;4.03;1.63;;;8.70;99.90;;;;;;5054812;28;20170;-85
2024/01/30 11:21:15;;;;;;;9.80;1.73;;;;;;;;;;5053470;28;20717;-85
2024/01/30 11:23:42;;;;;;;8.67;1.93;;;8.80;99.90;;;;;;5054844;28;20180;-86
2024/01/30 11:26:11;;;;;;;6.13;1.87;;;8.80;99.90;;;;;;5054749;28;20184;-86
2024/01/30 11:28:38;;;;;;;5.67;1.70;;;9.00;99.90;;;;;;5054424;28;20173;-87
2024/01/30 11:31:04;;;;;;;8.30;1.87;;;8.70;99.90;;;;;;5054300;28;20175;-85
2024/01/30 11:33:31;;;;;;;5.43;1.90;;;8.60;99.90;;;;;;5054503;28;20176;-88
2024/01/30 11:36:00;;;;;;;7.87;1.80;;;8.90;99.90;;;;;;5054148;28;20201;-85
2024/01/30 11:38:30;;;;;;;6.17;1.77;;;8.70;99.90;;;;;;5054476;28;20214;-85
2024/01/30 11:40:58;;;;;;;7.90;1.80;;;8.90;99.90;;;;;;5054694;28;20659;-85
2024/01/30 11:43:24;;;;;;;10.97;2.07;;;9.10;99.90;;;;;;5036384;28;20576;-82
2024/01/30 11:45:50;;;;;;;5.13;2.00;;;9.00;99.90;;;;;;5054441;28;20191;-86
2024/01/30 11:48:16;;;;;;;4.70;1.77;;;9.00;99.90;;;;;;5054128;28;20169;-87
2024/01/30 11:50:46;;;;;;;8.80;1.97;;;8.90;99.90;;;;;;5053723;28;20226;-86
2024/01/30 11:53:12;;;;;;;10.17;1.90;;;;;;;;;;5053653;28;20185;-86
2024/01/30 11:55:38;;;;;;;7.60;1.87;;;9.10;99.90;;;;;;5054286;28;20236;-88
2024/01/30 11:58:04;;;;;;;7.67;1.97;;;9.20;99.90;;;;;;5054238;28;20189;-86
2024/01/30 12:00:33;;;;;;;4.80;1.80;;;;;;;;;;5054869;28;20242;-87
2024/01/30 12:03:00;;;;;;;7.97;2.10;;;9.20;99.90;;;;;;5056367;28;20212;-87
2024/01/30 12:05:26;;;;;;;7.97;1.87;;;9.10;99.90;;;;;;5065260;28;20169;-85
2024/01/30 12:07:53;;;;;;;6.37;1.67;;;9.00;99.90;;;;;;5064256;28;20176;-84
2024/01/30 12:10:19;;;;;;;7.00;1.33;;;8.90;99.90;;;;;;5044090;28;20173;-86
2024/01/30 12:12:49;;;;;;;10.13;1.67;;;9.00;99.90;;;;;;5058880;28;20168;-85
2024/01/30 12:15:16;;;;;;;6.77;1.67;;;9.00;99.90;;;;;;5059364;28;20172;-87
2024/01/30 12:17:42;;;;;;;5.10;1.40;;;9.10;99.90;;;;;;5056830;28;20184;-86
2024/01/30 12:20:11;;;;;;;4.33;1.43;;;8.80;99.90;;;;;;5053608;28;20166;-85
2024/01/30 12:22:40;;;;;;;6.17;1.50;;;8.30;99.90;;;;;;5053177;28;20779;-86
2024/01/30 12:25:15;;;;;;;11.87;1.90;;;8.80;99.90;;;;;;5053316;28;20174;-86
2024/01/30 12:27:51;;;;;;;7.63;1.80;;;9.00;99.90;;;;;;5052899;28;20200;-86
2024/01/30 12:30:18;;;;;;;13.03;2.00;;;8.90;99.90;;;;;;5035976;28;20161;-86
2024/01/30 12:32:46;;;;;;;8.40;2.33;;;8.90;99.90;;;;;;5052858;28;20237;-86
2024/01/30 12:35:13;;;;;;;8.87;1.67;;;9.00;99.90;;;;;;5052767;28;20649;-87
2024/01/30 12:37:40;;;;;;;7.87;1.83;;;9.00;99.90;;;;;;5052608;28;20173;-86
2024/01/30 12:40:09;;;;;;;6.17;1.60;;;9.00;99.90;;;;;;5034292;28;20933;-85
2024/01/30 12:42:36;;;;;;;10.73;1.67;;;;;;;;;;5052558;28;20721;-84
2024/01/30 12:45:05;;;;;;;10.30;1.80;;;9.40;99.90;;;;;;5052688;28;20169;-86
2024/01/30 12:47:32;;;;;;;7.77;1.60;;;9.40;99.90;;;;;;5052626;28;20189;-85
2024/01/30 12:49:58;;;;;;;5.13;1.30;;;9.50;99.90;;;;;;5052541;28;20172;-85
2024/01/30 12:52:24;;;;;;;8.90;1.80;;;9.20;99.90;;;;;;5052421;28;20180;-86
2024/01/30 12:54:50;;;;;;;9.03;1.80;;;;;;;;;;5052766;28;20165;-86
2024/01/30 12:57:16;;;;;;;6.30;1.23;;;9.40;99.90;;;;;;5034693;28;20243;-84
2024/01/30 12:59:43;;;;;;;8.53;1.70;;;9.40;99.90;;;;;;5052556;28;20169;-85
2024/01/30 13:02:08;;;;;;;7.40;1.67;;;9.60;99.90;;;;;;5032009;28;20612;-84
2024/01/30 13:04:34;;;;;;;3.80;1.40;;;9.70;99.90;;;;;;5034626;28;20185;-86
2024/01/30 13:07:00;;;;;;;8.07;1.60;;;9.70;99.90;;;;;;5043391;28;20166;-85
2024/01/30 13:09:26;;;;;;;7.10;1.27;;;9.80;99.90;;;;;;5032636;28;20170;-85
2024/01/30 13:11:52;;;;;;;4.73;1.20;;;9.70;99.90;;;;;;5032234;28;20182;-86
2024/01/30 13:14:19;;;;;;;5.40;1.10;;;9.70;99.90;;;;;;5031959;28;20204;-85